sensor_id;sensor_type;location;lat;lon;timestamp;pressure;altitude;pressure_sealevel;temperature;humidity
63700;BME280;49845;47.130;142.766;2023-10-19T00:00:12;99505.19;;;12.05;100.00
63700;BME280;49845;47.130;142.766;2023-10-19T00:02:52;99504.13;;;12.11;100.00
63700;BME280;49845;47.130;142.766;2023-10-19T00:05:21;99496.44;;;12.06;100.00
63700;BME280;49845;47.130;142.766;2023-10-19T00:07:56;99505.66;;;11.92;100.00
63700;BME280;49845;47.130;142.766;2023-10-19T00:10:28;99502.59;;;11.79;100.00
63700;BME280;49845;47.130;142.766;2023-10-19T00:13:03;99488.78;;;11.74;100.00
63700;BME280;49845;47.130;142.766;2023-10-19T00:15:35;99391.91;;;11.23;100.00
63700;BME280;49845;47.130;142.766;2023-10-19T00:18:08;99474.78;;;11.75;100.00
63700;BME280;49845;47.130;142.766;2023-10-19T00:20:51;99479.84;;;11.81;100.00
63700;BME280;49845;47.130;142.766;2023-10-19T00:23:23;99479.91;;;11.78;100.00
63700;BME280;49845;47.130;142.766;2023-10-19T00:26:01;99423.19;;;11.53;100.00
63700;BME280;49845;47.130;142.766;2023-10-19T00:28:36;99486.06;;;11.77;100.00
63700;BME280;49845;47.130;142.766;2023-10-19T00:31:07;99483.56;;;11.74;100.00
63700;BME280;49845;47.130;142.766;2023-10-19T00:33:39;99472.53;;;11.64;100.00
63700;BME280;49845;47.130;142.766;2023-10-19T00:36:10;99468.28;;;11.61;100.00
63700;BME280;49845;47.130;142.766;2023-10-19T00:38:43;99473.59;;;11.58;100.00
63700;BME280;49845;47.130;142.766;2023-10-19T00:41:22;99425.81;;;11.27;100.00
63700;BME280;49845;47.130;142.766;2023-10-19T00:43:58;99476.47;;;11.51;100.00
63700;BME280;49845;47.130;142.766;2023-10-19T00:46:31;99470.38;;;11.50;100.00
63700;BME280;49845;47.130;142.766;2023-10-19T00:49:06;99479.88;;;11.53;100.00
63700;BME280;49845;47.130;142.766;2023-10-19T00:51:41;99461.81;;;11.45;100.00
63700;BME280;49845;47.130;142.766;2023-10-19T00:54:26;99458.50;;;11.40;100.00
63700;BME280;49845;47.130;142.766;2023-10-19T00:57:02;99459.81;;;11.53;100.00
63700;BME280;49845;47.130;142.766;2023-10-19T00:59:37;99378.78;;;10.98;100.00
63700;BME280;49845;47.130;142.766;2023-10-19T01:02:17;99452.81;;;11.54;100.00
63700;BME280;49845;47.130;142.766;2023-10-19T01:04:49;99418.84;;;11.26;100.00
63700;BME280;49845;47.130;142.766;2023-10-19T01:07:24;99463.63;;;11.43;100.00
63700;BME280;49845;47.130;142.766;2023-10-19T01:10:00;99449.94;;;11.35;100.00
63700;BME280;49845;47.130;142.766;2023-10-19T01:12:32;99429.53;;;11.19;100.00
63700;BME280;49845;47.130;142.766;2023-10-19T01:15:08;99430.25;;;11.23;100.00
63700;BME280;49845;47.130;142.766;2023-10-19T01:17:45;99438.75;;;11.31;100.00
63700;BME280;49845;47.130;142.766;2023-10-19T01:20:22;99429.25;;;11.29;100.00
63700;BME280;49845;47.130;142.766;2023-10-19T01:23:05;99432.44;;;11.37;100.00
63700;BME280;49845;47.130;142.766;2023-10-19T01:25:43;99430.63;;;11.39;100.00
63700;BME280;49845;47.130;142.766;2023-10-19T01:28:18;99394.63;;;11.20;100.00
63700;BME280;49845;47.130;142.766;2023-10-19T01:30:49;99422.00;;;11.37;100.00
63700;BME280;49845;47.130;142.766;2023-10-19T01:33:21;99445.94;;;11.51;100.00
63700;BME280;49845;47.130;142.766;2023-10-19T01:35:52;99442.69;;;11.43;100.00
63700;BME280;49845;47.130;142.766;2023-10-19T01:38:44;99447.84;;;11.46;100.00
63700;BME280;49845;47.130;142.766;2023-10-19T01:41:16;99438.34;;;11.43;100.00
63700;BME280;49845;47.130;142.766;2023-10-19T01:43:48;99422.03;;;11.35;100.00
63700;BME280;49845;47.130;142.766;2023-10-19T01:46:19;99435.66;;;11.45;100.00
63700;BME280;49845;47.130;142.766;2023-10-19T01:48:53;99419.78;;;11.51;100.00
63700;BME280;49845;47.130;142.766;2023-10-19T01:51:26;99414.63;;;11.48;100.00
63700;BME280;49845;47.130;142.766;2023-10-19T01:53:59;99402.47;;;11.47;100.00
63700;BME280;49845;47.130;142.766;2023-10-19T01:56:30;99413.59;;;11.54;100.00
63700;BME280;49845;47.130;142.766;2023-10-19T01:59:02;99412.63;;;11.56;100.00
63700;BME280;49845;47.130;142.766;2023-10-19T02:01:33;99412.50;;;11.59;100.00
63700;BME280;49845;47.130;142.766;2023-10-19T02:04:04;99413.31;;;11.61;100.00
63700;BME280;49845;47.130;142.766;2023-10-19T02:06:35;99412.50;;;11.59;100.00
63700;BME280;49845;47.130;142.766;2023-10-19T02:09:07;99404.69;;;11.58;100.00
63700;BME280;49845;47.130;142.766;2023-10-19T02:11:50;99406.28;;;11.63;100.00
63700;BME280;49845;47.130;142.766;2023-10-19T02:14:22;99401.75;;;11.69;100.00
63700;BME280;49845;47.130;142.766;2023-10-19T02:16:54;99403.97;;;11.79;100.00
63700;BME280;49845;47.130;142.766;2023-10-19T02:19:25;99382.59;;;11.93;100.00
63700;BME280;49845;47.130;142.766;2023-10-19T02:21:57;99384.41;;;12.15;100.00
63700;BME280;49845;47.130;142.766;2023-10-19T02:24:28;99387.13;;;12.35;100.00
63700;BME280;49845;47.130;142.766;2023-10-19T02:26:59;99384.97;;;12.46;100.00
63700;BME280;49845;47.130;142.766;2023-10-19T02:29:29;99376.56;;;12.60;100.00
63700;BME280;49845;47.130;142.766;2023-10-19T02:32:00;99378.53;;;12.77;100.00
63700;BME280;49845;47.130;142.766;2023-10-19T02:34:32;99362.09;;;12.95;100.00
63700;BME280;49845;47.130;142.766;2023-10-19T02:37:03;99368.16;;;13.18;100.00
63700;BME280;49845;47.130;142.766;2023-10-19T02:39:34;99367.22;;;13.41;100.00
63700;BME280;49845;47.130;142.766;2023-10-19T02:42:05;99362.09;;;13.58;100.00
63700;BME280;49845;47.130;142.766;2023-10-19T02:44:36;99359.25;;;13.84;100.00
63700;BME280;49845;47.130;142.766;2023-10-19T02:47:10;99373.94;;;13.88;100.00
63700;BME280;49845;47.130;142.766;2023-10-19T02:49:40;99371.13;;;13.92;100.00
63700;BME280;49845;47.130;142.766;2023-10-19T02:52:11;99368.03;;;14.03;100.00
63700;BME280;49845;47.130;142.766;2023-10-19T02:54:46;99368.28;;;13.97;100.00
63700;BME280;49845;47.130;142.766;2023-10-19T02:57:16;99356.97;;;14.15;100.00
63700;BME280;49845;47.130;142.766;2023-10-19T02:59:47;99353.97;;;14.42;100.00
63700;BME280;49845;47.130;142.766;2023-10-19T03:02:17;99346.50;;;14.53;100.00
63700;BME280;49845;47.130;142.766;2023-10-19T03:04:48;99327.66;;;14.80;100.00
63700;BME280;49845;47.130;142.766;2023-10-19T03:07:18;99331.88;;;14.84;100.00
63700;BME280;49845;47.130;142.766;2023-10-19T03:09:50;99331.25;;;14.79;100.00
63700;BME280;49845;47.130;142.766;2023-10-19T03:12:22;99322.09;;;14.69;99.06
63700;BME280;49845;47.130;142.766;2023-10-19T03:14:54;99322.38;;;14.62;97.19
63700;BME280;49845;47.130;142.766;2023-10-19T03:17:23;99292.31;;;14.49;95.18
63700;BME280;49845;47.130;142.766;2023-10-19T03:19:55;99305.03;;;14.95;95.40
63700;BME280;49845;47.130;142.766;2023-10-19T03:22:24;99315.50;;;15.14;94.36
63700;BME280;49845;47.130;142.766;2023-10-19T03:24:57;99303.28;;;15.13;92.72
63700;BME280;49845;47.130;142.766;2023-10-19T03:27:40;99310.91;;;15.17;89.06
63700;BME280;49845;47.130;142.766;2023-10-19T03:30:13;99301.88;;;15.40;85.77
63700;BME280;49845;47.130;142.766;2023-10-19T03:32:47;99306.94;;;15.61;79.41
63700;BME280;49845;47.130;142.766;2023-10-19T03:35:18;99315.53;;;15.64;74.37
63700;BME280;49845;47.130;142.766;2023-10-19T03:37:49;99312.81;;;15.66;76.19
63700;BME280;49845;47.130;142.766;2023-10-19T03:40:21;99302.75;;;15.57;73.72
63700;BME280;49845;47.130;142.766;2023-10-19T03:42:58;99321.81;;;15.62;73.75
63700;BME280;49845;47.130;142.766;2023-10-19T03:45:33;99312.41;;;15.40;69.02
63700;BME280;49845;47.130;142.766;2023-10-19T03:48:07;99330.84;;;15.23;68.16
63700;BME280;49845;47.130;142.766;2023-10-19T03:50:38;99329.59;;;15.13;67.92
63700;BME280;49845;47.130;142.766;2023-10-19T03:53:10;99328.78;;;14.93;69.31
63700;BME280;49845;47.130;142.766;2023-10-19T03:55:43;99315.31;;;14.82;70.17
63700;BME280;49845;47.130;142.766;2023-10-19T03:58:15;99319.56;;;14.84;68.47
63700;BME280;49845;47.130;142.766;2023-10-19T04:00:48;99322.13;;;14.86;68.95
63700;BME280;49845;47.130;142.766;2023-10-19T04:03:19;99325.06;;;14.97;70.20
63700;BME280;49845;47.130;142.766;2023-10-19T04:05:53;99321.38;;;15.01;69.26
63700;BME280;49845;47.130;142.766;2023-10-19T04:08:23;99326.78;;;14.98;65.31
63700;BME280;49845;47.130;142.766;2023-10-19T04:10:56;99329.63;;;14.94;66.20
63700;BME280;49845;47.130;142.766;2023-10-19T04:13:40;99336.06;;;14.88;65.17
63700;BME280;49845;47.130;142.766;2023-10-19T04:16:10;99327.38;;;14.86;65.50
63700;BME280;49845;47.130;142.766;2023-10-19T04:18:42;99327.38;;;14.86;65.88
63700;BME280;49845;47.130;142.766;2023-10-19T04:21:13;99319.88;;;14.78;63.49
63700;BME280;49845;47.130;142.766;2023-10-19T04:23:43;99326.41;;;14.70;64.31
63700;BME280;49845;47.130;142.766;2023-10-19T04:26:16;99328.25;;;14.67;65.17
63700;BME280;49845;47.130;142.766;2023-10-19T04:28:47;99299.56;;;14.44;64.47
63700;BME280;49845;47.130;142.766;2023-10-19T04:31:20;99334.69;;;14.62;64.84
63700;BME280;49845;47.130;142.766;2023-10-19T04:33:52;99347.75;;;14.63;64.87
63700;BME280;49845;47.130;142.766;2023-10-19T04:36:22;99345.03;;;14.65;63.77
63700;BME280;49845;47.130;142.766;2023-10-19T04:38:54;99352.16;;;14.63;63.04
63700;BME280;49845;47.130;142.766;2023-10-19T04:41:26;99340.09;;;14.59;62.98
63700;BME280;49845;47.130;142.766;2023-10-19T04:43:57;99352.88;;;14.66;64.69
63700;BME280;49845;47.130;142.766;2023-10-19T04:46:29;99349.44;;;14.64;63.99
63700;BME280;49845;47.130;142.766;2023-10-19T04:48:59;99356.44;;;14.65;64.60
63700;BME280;49845;47.130;142.766;2023-10-19T04:51:30;99360.50;;;14.52;63.97
63700;BME280;49845;47.130;142.766;2023-10-19T04:54:03;99367.06;;;14.43;62.97
63700;BME280;49845;47.130;142.766;2023-10-19T04:56:36;99331.03;;;14.08;62.84
63700;BME280;49845;47.130;142.766;2023-10-19T04:59:06;99372.81;;;14.33;64.81
63700;BME280;49845;47.130;142.766;2023-10-19T05:01:36;99378.00;;;14.34;64.40
63700;BME280;49845;47.130;142.766;2023-10-19T05:04:09;99385.59;;;14.21;64.64
63700;BME280;49845;47.130;142.766;2023-10-19T05:06:41;99392.34;;;14.27;66.75
63700;BME280;49845;47.130;142.766;2023-10-19T05:09:11;99387.50;;;14.37;65.08
63700;BME280;49845;47.130;142.766;2023-10-19T05:11:44;99399.16;;;14.50;65.67
63700;BME280;49845;47.130;142.766;2023-10-19T05:14:17;99414.38;;;14.62;63.71
63700;BME280;49845;47.130;142.766;2023-10-19T05:16:48;99414.13;;;14.69;64.80
63700;BME280;49845;47.130;142.766;2023-10-19T05:19:19;99417.38;;;14.74;64.65
63700;BME280;49845;47.130;142.766;2023-10-19T05:21:49;99428.84;;;14.73;65.50
63700;BME280;49845;47.130;142.766;2023-10-19T05:24:20;99441.63;;;14.61;63.48
63700;BME280;49845;47.130;142.766;2023-10-19T05:26:52;99441.16;;;14.33;64.27
63700;BME280;49845;47.130;142.766;2023-10-19T05:29:23;99453.13;;;13.99;62.53
63700;BME280;49845;47.130;142.766;2023-10-19T05:31:54;99456.56;;;13.80;63.22
63700;BME280;49845;47.130;142.766;2023-10-19T05:34:26;99459.25;;;13.79;63.26
63700;BME280;49845;47.130;142.766;2023-10-19T05:36:58;99457.53;;;13.78;63.29
63700;BME280;49845;47.130;142.766;2023-10-19T05:39:30;99468.91;;;13.78;63.39
63700;BME280;49845;47.130;142.766;2023-10-19T05:42:03;99468.44;;;13.69;61.17
63700;BME280;49845;47.130;142.766;2023-10-19T05:44:34;99473.84;;;13.64;63.74
63700;BME280;49845;47.130;142.766;2023-10-19T05:47:04;99477.59;;;13.58;63.96
63700;BME280;49845;47.130;142.766;2023-10-19T05:49:35;99484.53;;;13.59;63.83
63700;BME280;49845;47.130;142.766;2023-10-19T05:52:05;99487.34;;;13.55;64.01
63700;BME280;49845;47.130;142.766;2023-10-19T05:54:36;99493.00;;;13.46;64.68
63700;BME280;49845;47.130;142.766;2023-10-19T05:57:08;99477.78;;;13.32;64.95
63700;BME280;49845;47.130;142.766;2023-10-19T05:59:38;99490.19;;;13.28;63.69
63700;BME280;49845;47.130;142.766;2023-10-19T06:02:09;99501.00;;;13.19;64.60
63700;BME280;49845;47.130;142.766;2023-10-19T06:04:39;99497.72;;;13.14;65.48
63700;BME280;49845;47.130;142.766;2023-10-19T06:07:10;99513.75;;;13.06;65.75
63700;BME280;49845;47.130;142.766;2023-10-19T06:09:40;99508.16;;;12.92;65.97
63700;BME280;49845;47.130;142.766;2023-10-19T06:12:12;99524.16;;;12.86;65.95
63700;BME280;49845;47.130;142.766;2023-10-19T06:14:43;99519.28;;;12.75;66.17
63700;BME280;49845;47.130;142.766;2023-10-19T06:17:13;99518.97;;;12.61;66.45
63700;BME280;49845;47.130;142.766;2023-10-19T06:19:47;99513.81;;;12.58;66.69
63700;BME280;49845;47.130;142.766;2023-10-19T06:22:18;99515.88;;;12.49;66.89
63700;BME280;49845;47.130;142.766;2023-10-19T06:24:48;99523.34;;;12.35;65.01
63700;BME280;49845;47.130;142.766;2023-10-19T06:27:20;99528.00;;;12.27;64.79
63700;BME280;49845;47.130;142.766;2023-10-19T06:29:52;99520.47;;;12.18;62.86
63700;BME280;49845;47.130;142.766;2023-10-19T06:32:22;99530.94;;;12.18;63.15
63700;BME280;49845;47.130;142.766;2023-10-19T06:34:54;99516.19;;;12.15;63.97
63700;BME280;49845;47.130;142.766;2023-10-19T06:37:27;99523.28;;;12.13;64.15
63700;BME280;49845;47.130;142.766;2023-10-19T06:39:57;99527.75;;;12.09;64.47
63700;BME280;49845;47.130;142.766;2023-10-19T06:42:29;99529.66;;;12.04;64.85
63700;BME280;49845;47.130;142.766;2023-10-19T06:45:00;99538.53;;;12.00;65.58
63700;BME280;49845;47.130;142.766;2023-10-19T06:47:30;99543.34;;;11.86;64.96
63700;BME280;49845;47.130;142.766;2023-10-19T06:50:06;99500.06;;;11.49;65.39
63700;BME280;49845;47.130;142.766;2023-10-19T06:52:38;99563.88;;;11.72;65.72
63700;BME280;49845;47.130;142.766;2023-10-19T06:55:10;99565.00;;;11.63;66.65
63700;BME280;49845;47.130;142.766;2023-10-19T06:57:47;99572.22;;;11.56;67.26
63700;BME280;49845;47.130;142.766;2023-10-19T07:00:19;99578.53;;;11.49;68.16
63700;BME280;49845;47.130;142.766;2023-10-19T07:02:51;99592.72;;;11.42;68.45
63700;BME280;49845;47.130;142.766;2023-10-19T07:05:22;99579.13;;;11.31;68.94
63700;BME280;49845;47.130;142.766;2023-10-19T07:07:53;99593.34;;;11.20;69.20
63700;BME280;49845;47.130;142.766;2023-10-19T07:10:24;99595.34;;;11.12;70.00
63700;BME280;49845;47.130;142.766;2023-10-19T07:12:57;99593.81;;;11.05;70.35
63700;BME280;49845;47.130;142.766;2023-10-19T07:15:28;99601.03;;;10.97;70.98
63700;BME280;49845;47.130;142.766;2023-10-19T07:17:58;99590.81;;;10.88;71.16
63700;BME280;49845;47.130;142.766;2023-10-19T07:20:28;99598.78;;;10.83;71.42
63700;BME280;49845;47.130;142.766;2023-10-19T07:23:01;99601.59;;;10.75;72.50
63700;BME280;49845;47.130;142.766;2023-10-19T07:25:38;99610.59;;;10.65;73.75
63700;BME280;49845;47.130;142.766;2023-10-19T07:28:13;99611.19;;;10.44;72.83
63700;BME280;49845;47.130;142.766;2023-10-19T07:30:44;99621.78;;;10.38;73.17
63700;BME280;49845;47.130;142.766;2023-10-19T07:33:14;99620.16;;;10.33;74.48
63700;BME280;49845;47.130;142.766;2023-10-19T07:35:49;99627.25;;;10.28;74.28
63700;BME280;49845;47.130;142.766;2023-10-19T07:38:22;99625.72;;;10.18;74.72
63700;BME280;49845;47.130;142.766;2023-10-19T07:40:53;99634.75;;;10.05;75.06
63700;BME280;49845;47.130;142.766;2023-10-19T07:43:25;99638.66;;;9.87;75.99
63700;BME280;49845;47.130;142.766;2023-10-19T07:45:56;99588.91;;;9.59;76.14
63700;BME280;49845;47.130;142.766;2023-10-19T07:48:27;99644.06;;;9.79;76.29
63700;BME280;49845;47.130;142.766;2023-10-19T07:50:57;99649.56;;;9.67;76.92
63700;BME280;49845;47.130;142.766;2023-10-19T07:53:28;99653.47;;;9.47;77.41
63700;BME280;49845;47.130;142.766;2023-10-19T07:55:58;99652.88;;;9.33;78.50
63700;BME280;49845;47.130;142.766;2023-10-19T07:58:30;99650.59;;;9.18;79.67
63700;BME280;49845;47.130;142.766;2023-10-19T08:01:02;99656.97;;;9.03;80.97
63700;BME280;49845;47.130;142.766;2023-10-19T08:03:34;99654.66;;;8.89;82.74
63700;BME280;49845;47.130;142.766;2023-10-19T08:06:05;99659.97;;;8.83;83.52
63700;BME280;49845;47.130;142.766;2023-10-19T08:08:35;99663.63;;;8.73;84.07
63700;BME280;49845;47.130;142.766;2023-10-19T08:11:06;99666.44;;;8.62;84.56
63700;BME280;49845;47.130;142.766;2023-10-19T08:13:38;99674.34;;;8.57;84.93
63700;BME280;49845;47.130;142.766;2023-10-19T08:16:09;99669.28;;;8.48;85.25
63700;BME280;49845;47.130;142.766;2023-10-19T08:18:40;99677.97;;;8.49;85.34
63700;BME280;49845;47.130;142.766;2023-10-19T08:21:10;99681.44;;;8.49;84.78
63700;BME280;49845;47.130;142.766;2023-10-19T08:23:41;99680.53;;;8.50;84.57
63700;BME280;49845;47.130;142.766;2023-10-19T08:26:13;99691.03;;;8.46;84.65
63700;BME280;49845;47.130;142.766;2023-10-19T08:28:46;99702.34;;;8.43;84.87
63700;BME280;49845;47.130;142.766;2023-10-19T08:31:18;99697.09;;;8.46;85.38
63700;BME280;49845;47.130;142.766;2023-10-19T08:33:48;99699.69;;;8.46;84.74
63700;BME280;49845;47.130;142.766;2023-10-19T08:36:20;99698.94;;;8.38;84.99
63700;BME280;49845;47.130;142.766;2023-10-19T08:38:50;99704.34;;;8.26;85.34
63700;BME280;49845;47.130;142.766;2023-10-19T08:41:22;99705.16;;;8.28;86.20
63700;BME280;49845;47.130;142.766;2023-10-19T08:43:54;99706.06;;;8.27;86.41
63700;BME280;49845;47.130;142.766;2023-10-19T08:46:25;99705.00;;;8.38;86.83
63700;BME280;49845;47.130;142.766;2023-10-19T08:48:56;99706.72;;;8.41;86.15
63700;BME280;49845;47.130;142.766;2023-10-19T08:51:29;99711.97;;;8.39;85.71
63700;BME280;49845;47.130;142.766;2023-10-19T08:54:00;99699.91;;;8.31;85.63
63700;BME280;49845;47.130;142.766;2023-10-19T08:56:31;99711.09;;;8.39;85.35
63700;BME280;49845;47.130;142.766;2023-10-19T08:59:03;99720.66;;;8.37;85.79
63700;BME280;49845;47.130;142.766;2023-10-19T09:01:34;99716.38;;;8.33;85.77
63700;BME280;49845;47.130;142.766;2023-10-19T09:04:05;99718.19;;;8.28;85.40
63700;BME280;49845;47.130;142.766;2023-10-19T09:06:37;99714.81;;;8.23;85.74
63700;BME280;49845;47.130;142.766;2023-10-19T09:09:11;99726.84;;;8.30;85.42
63700;BME280;49845;47.130;142.766;2023-10-19T09:11:45;99724.19;;;8.33;86.00
63700;BME280;49845;47.130;142.766;2023-10-19T09:14:31;99732.81;;;8.36;85.92
63700;BME280;49845;47.130;142.766;2023-10-19T09:17:02;99738.88;;;8.37;85.65
63700;BME280;49845;47.130;142.766;2023-10-19T09:19:39;99738.94;;;8.34;85.06
63700;BME280;49845;47.130;142.766;2023-10-19T09:22:11;99718.38;;;8.15;85.25
63700;BME280;49845;47.130;142.766;2023-10-19T09:24:51;99735.69;;;8.19;85.17
63700;BME280;49845;47.130;142.766;2023-10-19T09:27:22;99722.78;;;8.12;85.94
63700;BME280;49845;47.130;142.766;2023-10-19T09:29:55;99732.22;;;8.17;86.00
63700;BME280;49845;47.130;142.766;2023-10-19T09:32:26;99739.25;;;8.12;85.80
63700;BME280;49845;47.130;142.766;2023-10-19T09:34:57;99751.41;;;8.10;85.67
63700;BME280;49845;47.130;142.766;2023-10-19T09:37:28;99753.16;;;8.11;85.19
63700;BME280;49845;47.130;142.766;2023-10-19T09:39:59;99744.50;;;8.09;85.14
63700;BME280;49845;47.130;142.766;2023-10-19T09:42:31;99740.16;;;8.10;85.08
63700;BME280;49845;47.130;142.766;2023-10-19T09:45:05;99746.31;;;8.04;85.20
63700;BME280;49845;47.130;142.766;2023-10-19T09:47:38;99739.47;;;7.97;85.02
63700;BME280;49845;47.130;142.766;2023-10-19T09:50:12;99745.56;;;7.94;84.90
63700;BME280;49845;47.130;142.766;2023-10-19T09:52:42;99741.44;;;7.80;84.89
63700;BME280;49845;47.130;142.766;2023-10-19T09:55:22;99728.59;;;7.67;85.56
63700;BME280;49845;47.130;142.766;2023-10-19T09:57:58;99745.06;;;7.69;85.77
63700;BME280;49845;47.130;142.766;2023-10-19T10:00:32;99751.13;;;7.68;85.81
63700;BME280;49845;47.130;142.766;2023-10-19T10:03:04;99742.44;;;7.69;86.55
63700;BME280;49845;47.130;142.766;2023-10-19T10:05:47;99750.25;;;7.69;86.51
63700;BME280;49845;47.130;142.766;2023-10-19T10:08:33;99688.31;;;7.32;85.92
63700;BME280;49845;47.130;142.766;2023-10-19T10:11:20;99747.94;;;7.46;85.03
63700;BME280;49845;47.130;142.766;2023-10-19T10:13:51;99741.38;;;7.13;85.41
63700;BME280;49845;47.130;142.766;2023-10-19T10:16:26;99739.16;;;6.73;87.00
63700;BME280;49845;47.130;142.766;2023-10-19T10:18:59;99735.06;;;6.49;88.51
63700;BME280;49845;47.130;142.766;2023-10-19T10:21:30;99746.44;;;6.34;89.67
63700;BME280;49845;47.130;142.766;2023-10-19T10:24:03;99741.28;;;6.25;90.96
63700;BME280;49845;47.130;142.766;2023-10-19T10:26:57;99754.28;;;6.25;91.88
63700;BME280;49845;47.130;142.766;2023-10-19T10:29:28;99753.38;;;6.26;92.04
63700;BME280;49845;47.130;142.766;2023-10-19T10:32:01;99750.75;;;6.32;92.33
63700;BME280;49845;47.130;142.766;2023-10-19T10:34:43;99736.91;;;6.35;92.16
63700;BME280;49845;47.130;142.766;2023-10-19T10:37:13;99748.00;;;6.51;91.79
63700;BME280;49845;47.130;142.766;2023-10-19T10:39:44;99743.56;;;6.65;92.09
63700;BME280;49845;47.130;142.766;2023-10-19T10:42:16;99754.75;;;6.73;91.19
63700;BME280;49845;47.130;142.766;2023-10-19T10:44:47;99759.91;;;6.76;91.07
63700;BME280;49845;47.130;142.766;2023-10-19T10:47:22;99762.38;;;6.88;91.23
63700;BME280;49845;47.130;142.766;2023-10-19T10:49:54;99761.47;;;6.96;90.30
63700;BME280;49845;47.130;142.766;2023-10-19T10:52:26;99764.84;;;7.04;89.83
63700;BME280;49845;47.130;142.766;2023-10-19T10:54:58;99672.84;;;6.40;89.11
63700;BME280;49845;47.130;142.766;2023-10-19T10:57:32;99763.09;;;7.09;89.06
63700;BME280;49845;47.130;142.766;2023-10-19T11:00:07;99761.38;;;7.05;88.52
63700;BME280;49845;47.130;142.766;2023-10-19T11:02:46;99766.56;;;7.05;88.24
63700;BME280;49845;47.130;142.766;2023-10-19T11:05:21;99771.81;;;6.99;88.38
63700;BME280;49845;47.130;142.766;2023-10-19T11:08:07;99778.78;;;6.97;88.61
63700;BME280;49845;47.130;142.766;2023-10-19T11:10:37;99771.00;;;6.97;88.42
63700;BME280;49845;47.130;142.766;2023-10-19T11:13:10;99776.16;;;7.00;88.46
63700;BME280;49845;47.130;142.766;2023-10-19T11:15:48;99767.53;;;6.95;88.02
63700;BME280;49845;47.130;142.766;2023-10-19T11:18:34;99775.31;;;6.98;88.48
63700;BME280;49845;47.130;142.766;2023-10-19T11:21:08;99718.41;;;6.73;87.86
63700;BME280;49845;47.130;142.766;2023-10-19T11:23:41;99670.25;;;6.38;87.48
63700;BME280;49845;47.130;142.766;2023-10-19T11:26:12;99775.38;;;6.91;86.92
63700;BME280;49845;47.130;142.766;2023-10-19T11:28:43;99776.34;;;6.80;87.75
63700;BME280;49845;47.130;142.766;2023-10-19T11:31:18;99791.97;;;6.72;87.80
63700;BME280;49845;47.130;142.766;2023-10-19T11:33:52;99785.22;;;6.51;87.93
63700;BME280;49845;47.130;142.766;2023-10-19T11:36:23;99799.94;;;6.47;89.40
63700;BME280;49845;47.130;142.766;2023-10-19T11:38:54;99787.00;;;6.44;89.97
63700;BME280;49845;47.130;142.766;2023-10-19T11:41:24;99789.59;;;6.41;90.26
63700;BME280;49845;47.130;142.766;2023-10-19T11:43:55;99791.28;;;6.48;90.51
63700;BME280;49845;47.130;142.766;2023-10-19T11:46:26;99798.25;;;6.43;89.51
63700;BME280;49845;47.130;142.766;2023-10-19T11:48:59;99803.47;;;6.37;89.31
63700;BME280;49845;47.130;142.766;2023-10-19T11:51:32;99794.97;;;6.17;89.34
63700;BME280;49845;47.130;142.766;2023-10-19T11:54:04;99796.72;;;6.09;89.50
63700;BME280;49845;47.130;142.766;2023-10-19T11:56:34;99794.22;;;5.95;89.79
63700;BME280;49845;47.130;142.766;2023-10-19T11:59:05;99808.06;;;5.84;90.35
63700;BME280;49845;47.130;142.766;2023-10-19T12:01:35;99808.13;;;5.71;90.50
63700;BME280;49845;47.130;142.766;2023-10-19T12:04:08;99792.59;;;5.58;91.24
63700;BME280;49845;47.130;142.766;2023-10-19T12:06:39;99809.06;;;5.54;91.88
63700;BME280;49845;47.130;142.766;2023-10-19T12:09:10;99796.97;;;5.44;92.38
63700;BME280;49845;47.130;142.766;2023-10-19T12:11:44;99793.56;;;5.37;92.85
63700;BME280;49845;47.130;142.766;2023-10-19T12:14:16;99809.09;;;5.36;92.89
63700;BME280;49845;47.130;142.766;2023-10-19T12:16:47;99792.72;;;5.28;92.78
63700;BME280;49845;47.130;142.766;2023-10-19T12:19:19;99803.94;;;5.27;92.89
63700;BME280;49845;47.130;142.766;2023-10-19T12:21:50;99798.78;;;5.27;93.50
63700;BME280;49845;47.130;142.766;2023-10-19T12:24:21;99796.16;;;5.30;93.60
63700;BME280;49845;47.130;142.766;2023-10-19T12:26:51;99796.16;;;5.28;93.85
63700;BME280;49845;47.130;142.766;2023-10-19T12:29:22;99791.00;;;5.17;93.79
63700;BME280;49845;47.130;142.766;2023-10-19T12:31:53;99790.16;;;5.11;93.64
63700;BME280;49845;47.130;142.766;2023-10-19T12:34:26;99802.25;;;5.07;93.86
63700;BME280;49845;47.130;142.766;2023-10-19T12:36:58;99804.84;;;5.06;94.78
63700;BME280;49845;47.130;142.766;2023-10-19T12:39:30;99804.81;;;5.09;95.86
63700;BME280;49845;47.130;142.766;2023-10-19T12:42:11;99796.19;;;5.11;96.88
63700;BME280;49845;47.130;142.766;2023-10-19T12:44:42;99796.19;;;5.10;97.22
63700;BME280;49845;47.130;142.766;2023-10-19T12:47:15;99789.28;;;5.15;98.56
63700;BME280;49845;47.130;142.766;2023-10-19T12:49:47;99787.53;;;5.20;98.14
63700;BME280;49845;47.130;142.766;2023-10-19T12:52:22;99791.00;;;5.08;97.23
63700;BME280;49845;47.130;142.766;2023-10-19T12:54:53;99778.97;;;5.04;97.92
63700;BME280;49845;47.130;142.766;2023-10-19T12:57:27;99781.53;;;5.07;97.88
63700;BME280;49845;47.130;142.766;2023-10-19T12:59:57;99778.09;;;5.05;98.30
63700;BME280;49845;47.130;142.766;2023-10-19T13:02:34;99769.44;;;5.09;99.14
63700;BME280;49845;47.130;142.766;2023-10-19T13:05:07;99766.84;;;5.11;98.83
63700;BME280;49845;47.130;142.766;2023-10-19T13:07:39;99759.06;;;5.06;98.27
63700;BME280;49845;47.130;142.766;2023-10-19T13:10:10;99757.38;;;5.02;98.54